sensor_id;sensor_type;location;lat;lon;timestamp;pressure;altitude;pressure_sealevel;temperature;humidity
4705;BME280;2366;51.332;6.610;2022-08-19T00:01:24;101115.81;;;22.15;67.84
4705;BME280;2366;51.332;6.610;2022-08-19T00:03:50;101128.47;;;22.15;68.24
4705;BME280;2366;51.332;6.610;2022-08-19T00:06:16;101133.34;;;22.11;68.26
4705;BME280;2366;51.332;6.610;2022-08-19T00:08:41;101131.66;;;22.10;68.35
4705;BME280;2366;51.332;6.610;2022-08-19T00:11:08;101126.41;;;22.09;68.47
4705;BME280;2366;51.332;6.610;2022-08-19T00:13:34;101135.53;;;22.08;68.75
4705;BME280;2366;51.332;6.610;2022-08-19T00:16:00;101133.97;;;22.05;68.94
4705;BME280;2366;51.332;6.610;2022-08-19T00:18:26;101136.38;;;22.08;68.90
4705;BME280;2366;51.332;6.610;2022-08-19T00:20:52;101141.63;;;22.10;68.81
4705;BME280;2366;51.332;6.610;2022-08-19T00:23:17;101139.91;;;22.09;68.58
4705;BME280;2366;51.332;6.610;2022-08-19T00:25:44;101143.09;;;22.04;68.64
4705;BME280;2366;51.332;6.610;2022-08-19T00:28:09;101133.59;;;22.00;68.66
4705;BME280;2366;51.332;6.610;2022-08-19T00:30:37;101138.66;;;21.95;68.66
4705;BME280;2366;51.332;6.610;2022-08-19T00:33:02;101140.66;;;21.93;69.05
4705;BME280;2366;51.332;6.610;2022-08-19T00:35:28;101134.72;;;21.89;69.18
4705;BME280;2366;51.332;6.610;2022-08-19T00:37:54;101127.09;;;21.85;69.26
4705;BME280;2366;51.332;6.610;2022-08-19T00:40:20;101118.31;;;21.83;69.60
4705;BME280;2366;51.332;6.610;2022-08-19T00:42:46;101114.91;;;21.81;69.39
4705;BME280;2366;51.332;6.610;2022-08-19T00:45:18;101115.94;;;21.80;69.56
4705;BME280;2366;51.332;6.610;2022-08-19T00:47:44;101120.66;;;21.78;69.56
4705;BME280;2366;51.332;6.610;2022-08-19T00:50:13;101115.41;;;21.76;69.92
4705;BME280;2366;51.332;6.610;2022-08-19T00:52:42;101120.94;;;21.74;70.06
4705;BME280;2366;51.332;6.610;2022-08-19T00:55:13;101113.88;;;21.73;70.10
4705;BME280;2366;51.332;6.610;2022-08-19T00:57:43;101115.88;;;21.71;69.97
4705;BME280;2366;51.332;6.610;2022-08-19T01:00:13;101116.16;;;21.68;69.76
4705;BME280;2366;51.332;6.610;2022-08-19T01:02:40;101119.03;;;21.67;70.14
4705;BME280;2366;51.332;6.610;2022-08-19T01:05:09;101107.72;;;21.63;70.21
4705;BME280;2366;51.332;6.610;2022-08-19T01:07:40;101110.75;;;21.60;70.12
4705;BME280;2366;51.332;6.610;2022-08-19T01:10:09;101106.66;;;21.56;70.30
4705;BME280;2366;51.332;6.610;2022-08-19T01:12:36;101114.19;;;21.52;70.60
4705;BME280;2366;51.332;6.610;2022-08-19T01:15:03;101110.66;;;21.52;70.40
4705;BME280;2366;51.332;6.610;2022-08-19T01:17:28;101121.13;;;21.55;70.41
4705;BME280;2366;51.332;6.610;2022-08-19T01:19:54;101115.91;;;21.53;70.78
4705;BME280;2366;51.332;6.610;2022-08-19T01:24:48;101115.03;;;21.53;70.51
4705;BME280;2366;51.332;6.610;2022-08-19T01:27:13;101115.03;;;21.53;70.49
4705;BME280;2366;51.332;6.610;2022-08-19T01:29:41;101110.13;;;21.48;70.41
4705;BME280;2366;51.332;6.610;2022-08-19T01:32:10;101124.06;;;21.44;70.39
4705;BME280;2366;51.332;6.610;2022-08-19T01:34:37;101117.97;;;21.42;70.35
4705;BME280;2366;51.332;6.610;2022-08-19T01:37:07;101114.56;;;21.40;70.44
4705;BME280;2366;51.332;6.610;2022-08-19T01:39:34;101111.34;;;21.36;70.74
4705;BME280;2366;51.332;6.610;2022-08-19T01:41:59;101110.47;;;21.36;71.00
4705;BME280;2366;51.332;6.610;2022-08-19T01:44:28;101116.56;;;21.38;70.91
4705;BME280;2366;51.332;6.610;2022-08-19T01:46:53;101115.88;;;21.36;70.74
4705;BME280;2366;51.332;6.610;2022-08-19T01:49:20;101118.56;;;21.36;70.82
4705;BME280;2366;51.332;6.610;2022-08-19T01:51:46;101121.25;;;21.36;70.70
4705;BME280;2366;51.332;6.610;2022-08-19T01:54:14;101120.75;;;21.32;70.67
4705;BME280;2366;51.332;6.610;2022-08-19T01:56:40;101122.06;;;21.28;70.58
4705;BME280;2366;51.332;6.610;2022-08-19T01:59:10;101122.50;;;21.23;70.67
4705;BME280;2366;51.332;6.610;2022-08-19T02:01:37;101131.91;;;21.19;70.91
4705;BME280;2366;51.332;6.610;2022-08-19T02:04:02;101125.41;;;21.12;71.00
4705;BME280;2366;51.332;6.610;2022-08-19T02:06:28;101126.06;;;21.06;71.32
4705;BME280;2366;51.332;6.610;2022-08-19T02:08:54;101127.59;;;21.08;71.72
4705;BME280;2366;51.332;6.610;2022-08-19T02:11:26;101112.72;;;21.04;71.95
4705;BME280;2366;51.332;6.610;2022-08-19T02:13:53;101121.09;;;21.01;71.77
4705;BME280;2366;51.332;6.610;2022-08-19T02:16:19;101119.25;;;21.02;72.13
4705;BME280;2366;51.332;6.610;2022-08-19T02:18:46;101114.03;;;21.00;72.11
4705;BME280;2366;51.332;6.610;2022-08-19T02:21:17;101116.84;;;20.99;72.40
4705;BME280;2366;51.332;6.610;2022-08-19T02:23:44;101127.50;;;21.00;72.38
4705;BME280;2366;51.332;6.610;2022-08-19T02:26:10;101127.50;;;21.00;72.61
4705;BME280;2366;51.332;6.610;2022-08-19T02:28:36;101128.66;;;20.98;72.42
4705;BME280;2366;51.332;6.610;2022-08-19T02:31:02;101127.25;;;20.93;72.90
4705;BME280;2366;51.332;6.610;2022-08-19T02:33:28;101133.94;;;20.89;72.78
4705;BME280;2366;51.332;6.610;2022-08-19T02:35:54;101134.41;;;20.85;72.96
4705;BME280;2366;51.332;6.610;2022-08-19T02:38:19;101138.94;;;20.84;73.14
4705;BME280;2366;51.332;6.610;2022-08-19T02:40:53;101129.84;;;20.85;73.11
4705;BME280;2366;51.332;6.610;2022-08-19T02:43:20;101127.00;;;20.87;73.16
4705;BME280;2366;51.332;6.610;2022-08-19T02:45:46;101130.53;;;20.87;73.18
4705;BME280;2366;51.332;6.610;2022-08-19T02:48:17;101128.69;;;20.88;73.26
4705;BME280;2366;51.332;6.610;2022-08-19T02:50:44;101121.47;;;20.88;73.64
4705;BME280;2366;51.332;6.610;2022-08-19T02:53:09;101134.63;;;20.91;73.63
4705;BME280;2366;51.332;6.610;2022-08-19T02:55:35;101129.94;;;20.93;73.79
4705;BME280;2366;51.332;6.610;2022-08-19T02:58:00;101136.31;;;20.92;73.88
4705;BME280;2366;51.332;6.610;2022-08-19T03:00:26;101134.63;;;20.91;73.76
4705;BME280;2366;51.332;6.610;2022-08-19T03:02:52;101144.56;;;20.91;73.89
4705;BME280;2366;51.332;6.610;2022-08-19T03:05:18;101145.41;;;20.91;73.97
4705;BME280;2366;51.332;6.610;2022-08-19T03:07:43;101148.25;;;20.90;73.98
4705;BME280;2366;51.332;6.610;2022-08-19T03:10:09;101148.25;;;20.90;74.26
4705;BME280;2366;51.332;6.610;2022-08-19T03:12:37;101151.13;;;20.88;74.14
4705;BME280;2366;51.332;6.610;2022-08-19T03:15:04;101149.41;;;20.87;74.08
4705;BME280;2366;51.332;6.610;2022-08-19T03:17:31;101141.31;;;20.87;74.59
4705;BME280;2366;51.332;6.610;2022-08-19T03:19:56;101142.03;;;20.89;74.41
4705;BME280;2366;51.332;6.610;2022-08-19T03:22:22;101144.56;;;20.91;74.32
4705;BME280;2366;51.332;6.610;2022-08-19T03:24:47;101133.94;;;20.89;74.46
4705;BME280;2366;51.332;6.610;2022-08-19T03:27:13;101130.53;;;20.87;74.45
4705;BME280;2366;51.332;6.610;2022-08-19T03:29:39;101126.19;;;20.86;74.73
4705;BME280;2366;51.332;6.610;2022-08-19T03:32:05;101144.34;;;20.84;74.99
4705;BME280;2366;51.332;6.610;2022-08-19T03:34:33;101141.63;;;20.84;75.24
4705;BME280;2366;51.332;6.610;2022-08-19T03:37:05;101137.66;;;20.88;75.18
4705;BME280;2366;51.332;6.610;2022-08-19T03:39:30;101142.03;;;20.89;75.46
4705;BME280;2366;51.332;6.610;2022-08-19T03:41:56;101133.94;;;20.89;75.34
4705;BME280;2366;51.332;6.610;2022-08-19T03:44:23;101138.63;;;20.87;75.28
4705;BME280;2366;51.332;6.610;2022-08-19T03:46:52;101151.72;;;20.82;75.44
4705;BME280;2366;51.332;6.610;2022-08-19T03:49:19;101146.63;;;20.79;75.55
4705;BME280;2366;51.332;6.610;2022-08-19T03:51:46;101137.38;;;20.82;75.53
4705;BME280;2366;51.332;6.610;2022-08-19T03:54:15;101140.25;;;20.80;75.34
4705;BME280;2366;51.332;6.610;2022-08-19T03:56:42;101145.78;;;20.79;75.63
4705;BME280;2366;51.332;6.610;2022-08-19T03:59:11;101144.22;;;20.76;75.60
4705;BME280;2366;51.332;6.610;2022-08-19T04:01:36;101142.84;;;20.72;75.32
4705;BME280;2366;51.332;6.610;2022-08-19T04:04:02;101146.53;;;20.71;75.58
4705;BME280;2366;51.332;6.610;2022-08-19T04:06:31;101145.53;;;20.72;75.75
4705;BME280;2366;51.332;6.610;2022-08-19T04:08:58;101139.44;;;20.70;75.75
4705;BME280;2366;51.332;6.610;2022-08-19T04:11:27;101147.53;;;20.70;75.62
4705;BME280;2366;51.332;6.610;2022-08-19T04:13:54;101134.38;;;20.67;75.60
4705;BME280;2366;51.332;6.610;2022-08-19T04:16:22;101142.03;;;20.62;75.79
4705;BME280;2366;51.332;6.610;2022-08-19T04:18:48;101137.66;;;20.61;76.07
4705;BME280;2366;51.332;6.610;2022-08-19T04:21:17;101138.63;;;20.60;76.06
4705;BME280;2366;51.332;6.610;2022-08-19T04:23:44;101136.22;;;20.57;76.05
4705;BME280;2366;51.332;6.610;2022-08-19T04:26:18;101137.19;;;20.56;76.37
4705;BME280;2366;51.332;6.610;2022-08-19T04:28:44;101131.81;;;20.56;76.47
4705;BME280;2366;51.332;6.610;2022-08-19T04:31:19;101133.25;;;20.60;76.49
4705;BME280;2366;51.332;6.610;2022-08-19T04:33:44;101126.03;;;20.60;76.69
4705;BME280;2366;51.332;6.610;2022-08-19T04:36:22;101128.28;;;20.65;76.77
4705;BME280;2366;51.332;6.610;2022-08-19T04:38:50;101132.38;;;20.69;76.74
4705;BME280;2366;51.332;6.610;2022-08-19T04:41:15;101135.59;;;20.72;76.69
4705;BME280;2366;51.332;6.610;2022-08-19T04:43:59;101143.38;;;20.76;76.57
4705;BME280;2366;51.332;6.610;2022-08-19T04:46:25;101146.47;;;20.81;76.73
4705;BME280;2366;51.332;6.610;2022-08-19T04:48:51;101153.25;;;20.85;76.67
4705;BME280;2366;51.332;6.610;2022-08-19T04:51:17;101154.19;;;20.93;76.68
4705;BME280;2366;51.332;6.610;2022-08-19T04:53:42;101162.53;;;21.00;76.44
4705;BME280;2366;51.332;6.610;2022-08-19T04:56:13;101155.53;;;21.07;76.14
4705;BME280;2366;51.332;6.610;2022-08-19T04:58:41;101170.50;;;21.20;76.22
4705;BME280;2366;51.332;6.610;2022-08-19T05:01:17;101174.25;;;21.27;75.87
4705;BME280;2366;51.332;6.610;2022-08-19T05:03:42;101178.19;;;21.32;75.19
4705;BME280;2366;51.332;6.610;2022-08-19T05:06:11;101179.72;;;21.45;75.39
4705;BME280;2366;51.332;6.610;2022-08-19T05:08:38;101178.16;;;21.60;75.26
4705;BME280;2366;51.332;6.610;2022-08-19T05:11:18;101181.31;;;21.73;74.91
4705;BME280;2366;51.332;6.610;2022-08-19T05:13:46;101188.13;;;21.86;74.03
4705;BME280;2366;51.332;6.610;2022-08-19T05:16:13;101186.22;;;21.96;73.90
4705;BME280;2366;51.332;6.610;2022-08-19T05:18:40;101191.81;;;22.03;73.61
4705;BME280;2366;51.332;6.610;2022-08-19T05:21:29;101202.78;;;22.01;72.18
4705;BME280;2366;51.332;6.610;2022-08-19T05:24:14;101206.81;;;21.97;72.57
4705;BME280;2366;51.332;6.610;2022-08-19T05:26:42;101209.94;;;22.10;72.09
4705;BME280;2366;51.332;6.610;2022-08-19T05:29:08;101212.16;;;22.33;71.87
4705;BME280;2366;51.332;6.610;2022-08-19T05:31:35;101209.66;;;22.74;71.42
4705;BME280;2366;51.332;6.610;2022-08-19T05:34:01;101214.63;;;23.21;70.69
4705;BME280;2366;51.332;6.610;2022-08-19T05:36:28;101216.94;;;23.83;68.32
4705;BME280;2366;51.332;6.610;2022-08-19T05:38:57;101212.25;;;24.74;66.45
4705;BME280;2366;51.332;6.610;2022-08-19T05:41:23;101206.47;;;25.16;62.98
4705;BME280;2366;51.332;6.610;2022-08-19T05:43:55;101214.91;;;25.53;61.43
4705;BME280;2366;51.332;6.610;2022-08-19T05:46:21;101206.22;;;26.03;58.41
4705;BME280;2366;51.332;6.610;2022-08-19T05:48:47;101206.84;;;26.88;57.07
4705;BME280;2366;51.332;6.610;2022-08-19T05:51:13;101200.78;;;27.59;53.65
4705;BME280;2366;51.332;6.610;2022-08-19T05:53:39;101215.94;;;28.11;51.97
4705;BME280;2366;51.332;6.610;2022-08-19T05:56:10;101210.38;;;28.54;50.97
4705;BME280;2366;51.332;6.610;2022-08-19T05:58:37;101210.22;;;29.04;49.21
4705;BME280;2366;51.332;6.610;2022-08-19T06:01:08;101208.06;;;29.61;48.39
4705;BME280;2366;51.332;6.610;2022-08-19T06:03:35;101206.84;;;29.97;46.64
4705;BME280;2366;51.332;6.610;2022-08-19T06:06:03;101196.97;;;30.29;45.65
4705;BME280;2366;51.332;6.610;2022-08-19T06:08:28;101195.34;;;30.93;44.51
4705;BME280;2366;51.332;6.610;2022-08-19T06:10:54;101203.06;;;31.48;43.54
4705;BME280;2366;51.332;6.610;2022-08-19T06:13:20;101208.28;;;31.56;42.62
4705;BME280;2366;51.332;6.610;2022-08-19T06:15:46;101211.22;;;31.55;42.64
4705;BME280;2366;51.332;6.610;2022-08-19T06:18:13;101211.81;;;31.88;41.77
4705;BME280;2366;51.332;6.610;2022-08-19T06:20:39;101206.56;;;31.23;42.58
4705;BME280;2366;51.332;6.610;2022-08-19T06:23:05;101201.75;;;31.19;42.52
4705;BME280;2366;51.332;6.610;2022-08-19T06:25:30;101212.72;;;31.82;42.38
4705;BME280;2366;51.332;6.610;2022-08-19T06:27:55;101211.47;;;32.28;40.73
4705;BME280;2366;51.332;6.610;2022-08-19T06:30:21;101215.44;;;32.32;40.67
4705;BME280;2366;51.332;6.610;2022-08-19T06:32:47;101213.94;;;32.11;40.09
4705;BME280;2366;51.332;6.610;2022-08-19T06:35:12;101216.19;;;32.21;40.90
4705;BME280;2366;51.332;6.610;2022-08-19T06:37:39;101203.25;;;32.53;40.06
4705;BME280;2366;51.332;6.610;2022-08-19T06:40:05;101202.47;;;31.71;41.05
4705;BME280;2366;51.332;6.610;2022-08-19T06:42:33;101207.28;;;31.76;41.66
4705;BME280;2366;51.332;6.610;2022-08-19T06:45:00;101213.91;;;32.80;40.52
4705;BME280;2366;51.332;6.610;2022-08-19T06:47:28;101209.69;;;33.99;37.71
4705;BME280;2366;51.332;6.610;2022-08-19T06:49:55;101209.91;;;34.80;36.13
4705;BME280;2366;51.332;6.610;2022-08-19T06:52:25;101213.03;;;35.12;35.59
4705;BME280;2366;51.332;6.610;2022-08-19T06:54:50;101204.25;;;35.44;34.40
4705;BME280;2366;51.332;6.610;2022-08-19T06:57:16;101206.75;;;35.28;34.60
4705;BME280;2366;51.332;6.610;2022-08-19T06:59:41;101204.34;;;35.77;33.90
4705;BME280;2366;51.332;6.610;2022-08-19T07:02:07;101208.41;;;36.26;32.87
4705;BME280;2366;51.332;6.610;2022-08-19T07:04:34;101212.31;;;36.91;32.08
4705;BME280;2366;51.332;6.610;2022-08-19T07:07:05;101211.34;;;36.58;31.82
4705;BME280;2366;51.332;6.610;2022-08-19T07:09:32;101220.72;;;36.18;32.43
4705;BME280;2366;51.332;6.610;2022-08-19T07:11:58;101215.69;;;36.54;32.15
4705;BME280;2366;51.332;6.610;2022-08-19T07:14:26;101220.84;;;36.28;31.94
4705;BME280;2366;51.332;6.610;2022-08-19T07:16:54;101222.31;;;36.14;33.35
4705;BME280;2366;51.332;6.610;2022-08-19T07:19:21;101220.13;;;36.33;32.37
4705;BME280;2366;51.332;6.610;2022-08-19T07:21:48;101229.06;;;36.23;32.13
4705;BME280;2366;51.332;6.610;2022-08-19T07:24:15;101226.94;;;36.30;32.44
4705;BME280;2366;51.332;6.610;2022-08-19T07:26:42;101235.06;;;36.03;33.16
4705;BME280;2366;51.332;6.610;2022-08-19T07:29:08;101227.91;;;36.80;31.88
4705;BME280;2366;51.332;6.610;2022-08-19T07:31:34;101235.53;;;37.12;31.58
4705;BME280;2366;51.332;6.610;2022-08-19T07:34:03;101234.59;;;37.28;31.54
4705;BME280;2366;51.332;6.610;2022-08-19T07:36:34;101236.19;;;37.51;30.50
4705;BME280;2366;51.332;6.610;2022-08-19T07:39:03;101241.66;;;36.36;32.25
4705;BME280;2366;51.332;6.610;2022-08-19T07:41:30;101245.47;;;36.91;32.15
4705;BME280;2366;51.332;6.610;2022-08-19T07:43:58;101239.81;;;36.80;31.57
4705;BME280;2366;51.332;6.610;2022-08-19T07:46:30;101231.72;;;36.35;32.13
4705;BME280;2366;51.332;6.610;2022-08-19T07:48:56;101237.06;;;35.91;33.13
4705;BME280;2366;51.332;6.610;2022-08-19T07:51:21;101246.94;;;36.37;33.34
4705;BME280;2366;51.332;6.610;2022-08-19T07:53:48;101247.63;;;36.89;32.22
4705;BME280;2366;51.332;6.610;2022-08-19T07:56:17;101241.44;;;35.70;34.07
4705;BME280;2366;51.332;6.610;2022-08-19T07:58:44;101244.44;;;34.87;35.00
4705;BME280;2366;51.332;6.610;2022-08-19T08:01:20;101249.56;;;33.47;36.48
4705;BME280;2366;51.332;6.610;2022-08-19T08:03:47;101255.38;;;32.03;39.30
4705;BME280;2366;51.332;6.610;2022-08-19T08:06:32;101247.38;;;30.60;43.21
4705;BME280;2366;51.332;6.610;2022-08-19T08:09:21;101260.44;;;30.71;43.32
4705;BME280;2366;51.332;6.610;2022-08-19T08:11:58;101259.09;;;31.00;42.09
4705;BME280;2366;51.332;6.610;2022-08-19T08:14:28;101260.81;;;30.75;42.55
4705;BME280;2366;51.332;6.610;2022-08-19T08:16:54;101259.16;;;30.74;43.19
4705;BME280;2366;51.332;6.610;2022-08-19T08:19:22;101266.97;;;31.28;41.96
4705;BME280;2366;51.332;6.610;2022-08-19T08:21:48;101259.53;;;31.36;41.71
4705;BME280;2366;51.332;6.610;2022-08-19T08:24:15;101269.41;;;32.13;39.77
4705;BME280;2366;51.332;6.610;2022-08-19T08:26:41;101269.84;;;32.61;39.36
4705;BME280;2366;51.332;6.610;2022-08-19T08:29:07;101273.88;;;32.77;38.79
4705;BME280;2366;51.332;6.610;2022-08-19T08:31:34;101269.63;;;32.81;39.10
4705;BME280;2366;51.332;6.610;2022-08-19T08:33:59;101269.94;;;32.47;39.26
4705;BME280;2366;51.332;6.610;2022-08-19T08:36:25;101277.66;;;33.49;37.23
4705;BME280;2366;51.332;6.610;2022-08-19T08:38:50;101279.69;;;33.54;37.13
4705;BME280;2366;51.332;6.610;2022-08-19T08:44:22;101280.72;;;33.41;37.45
4705;BME280;2366;51.332;6.610;2022-08-19T08:46:56;101281.38;;;33.25;37.38
4705;BME280;2366;51.332;6.610;2022-08-19T08:49:35;101281.56;;;33.72;35.80
4705;BME280;2366;51.332;6.610;2022-08-19T08:52:19;101279.56;;;34.45;35.07
4705;BME280;2366;51.332;6.610;2022-08-19T08:54:48;101276.44;;;34.88;34.66
4705;BME280;2366;51.332;6.610;2022-08-19T08:58:07;101275.63;;;35.57;33.29
4705;BME280;2366;51.332;6.610;2022-08-19T09:00:12;101274.94;;;36.29;32.82
4705;BME280;2366;51.332;6.610;2022-08-19T09:02:40;101276.72;;;37.13;30.54
4705;BME280;2366;51.332;6.610;2022-08-19T09:05:05;101269.50;;;37.12;29.97
4705;BME280;2366;51.332;6.610;2022-08-19T09:10:18;101264.97;;;36.62;30.58
4705;BME280;2366;51.332;6.610;2022-08-19T09:15:45;101268.66;;;36.00;30.74
4705;BME280;2366;51.332;6.610;2022-08-19T09:18:13;101257.56;;;35.95;31.01
4705;BME280;2366;51.332;6.610;2022-08-19T09:20:40;101258.41;;;35.09;32.33
4705;BME280;2366;51.332;6.610;2022-08-19T09:23:05;101262.09;;;34.74;33.25
4705;BME280;2366;51.332;6.610;2022-08-19T09:25:31;101262.28;;;35.37;32.49
4705;BME280;2366;51.332;6.610;2022-08-19T09:27:57;101262.63;;;35.69;32.04
4705;BME280;2366;51.332;6.610;2022-08-19T09:30:30;101255.44;;;36.53;30.53
4705;BME280;2366;51.332;6.610;2022-08-19T09:32:56;101266.72;;;36.90;30.40
4705;BME280;2366;51.332;6.610;2022-08-19T09:35:24;101260.38;;;36.68;29.64
4705;BME280;2366;51.332;6.610;2022-08-19T09:37:50;101274.13;;;37.29;29.32
4705;BME280;2366;51.332;6.610;2022-08-19T09:40:16;101266.19;;;36.71;29.60
4705;BME280;2366;51.332;6.610;2022-08-19T09:42:43;101263.81;;;37.02;29.66
4705;BME280;2366;51.332;6.610;2022-08-19T09:45:11;101266.78;;;36.95;29.19
4705;BME280;2366;51.332;6.610;2022-08-19T09:47:36;101266.47;;;37.14;29.22
4705;BME280;2366;51.332;6.610;2022-08-19T09:50:05;101266.41;;;37.58;28.40
4705;BME280;2366;51.332;6.610;2022-08-19T09:52:31;101270.97;;;37.47;28.73
4705;BME280;2366;51.332;6.610;2022-08-19T09:54:56;101259.72;;;37.05;28.81
4705;BME280;2366;51.332;6.610;2022-08-19T09:57:22;101259.69;;;36.60;30.08
4705;BME280;2366;51.332;6.610;2022-08-19T09:59:47;101262.59;;;35.98;31.25
4705;BME280;2366;51.332;6.610;2022-08-19T10:02:13;101257.13;;;35.86;30.65
4705;BME280;2366;51.332;6.610;2022-08-19T10:04:39;101263.47;;;35.70;31.22
4705;BME280;2366;51.332;6.610;2022-08-19T10:07:23;101254.59;;;35.39;30.91
4705;BME280;2366;51.332;6.610;2022-08-19T10:09:49;101256.66;;;33.97;33.55
4705;BME280;2366;51.332;6.610;2022-08-19T10:12:15;101256.78;;;33.90;33.58
4705;BME280;2366;51.332;6.610;2022-08-19T10:14:40;101260.13;;;33.92;33.91
4705;BME280;2366;51.332;6.610;2022-08-19T10:17:06;101248.00;;;34.12;33.47
4705;BME280;2366;51.332;6.610;2022-08-19T10:19:31;101248.44;;;34.32;32.73
4705;BME280;2366;51.332;6.610;2022-08-19T10:22:03;101253.06;;;33.54;34.21
4705;BME280;2366;51.332;6.610;2022-08-19T10:24:29;101245.28;;;33.51;33.91
4705;BME280;2366;51.332;6.610;2022-08-19T10:26:56;101247.22;;;33.21;34.99
4705;BME280;2366;51.332;6.610;2022-08-19T10:29:21;101234.38;;;32.96;35.33
4705;BME280;2366;51.332;6.610;2022-08-19T10:31:46;101236.06;;;32.79;36.19
4705;BME280;2366;51.332;6.610;2022-08-19T10:34:12;101229.97;;;32.95;36.27
4705;BME280;2366;51.332;6.610;2022-08-19T10:36:37;101235.09;;;33.40;35.04
4705;BME280;2366;51.332;6.610;2022-08-19T10:39:06;101223.53;;;33.50;34.72
4705;BME280;2366;51.332;6.610;2022-08-19T10:41:35;101223.72;;;32.51;35.80
4705;BME280;2366;51.332;6.610;2022-08-19T10:44:06;101220.16;;;32.25;36.05
4705;BME280;2366;51.332;6.610;2022-08-19T10:46:34;101223.31;;;32.47;36.15
4705;BME280;2366;51.332;6.610;2022-08-19T10:49:01;101227.88;;;32.35;36.22
4705;BME280;2366;51.332;6.610;2022-08-19T10:51:27;101234.84;;;32.31;35.82
4705;BME280;2366;51.332;6.610;2022-08-19T10:54:11;101226.09;;;32.22;36.27
4705;BME280;2366;51.332;6.610;2022-08-19T10:56:37;101222.22;;;32.73;36.37
4705;BME280;2366;51.332;6.610;2022-08-19T10:59:25;101219.31;;;32.87;35.48
4705;BME280;2366;51.332;6.610;2022-08-19T11:01:58;101219.16;;;32.20;36.16
4705;BME280;2366;51.332;6.610;2022-08-19T11:04:24;101218.50;;;31.99;36.48
4705;BME280;2366;51.332;6.610;2022-08-19T11:06:49;101217.09;;;32.15;36.16
4705;BME280;2366;51.332;6.610;2022-08-19T11:09:18;101218.97;;;31.89;36.25
4705;BME280;2366;51.332;6.610;2022-08-19T11:11:44;101217.59;;;31.42;36.40
4705;BME280;2366;51.332;6.610;2022-08-19T11:14:20;101220.47;;;31.60;36.17
4705;BME280;2366;51.332;6.610;2022-08-19T11:16:56;101218.25;;;32.26;36.21
4705;BME280;2366;51.332;6.610;2022-08-19T11:19:22;101207.97;;;32.65;35.38
4705;BME280;2366;51.332;6.610;2022-08-19T11:21:49;101222.19;;;32.92;35.02
4705;BME280;2366;51.332;6.610;2022-08-19T11:24:20;101216.63;;;33.17;34.50
4705;BME280;2366;51.332;6.610;2022-08-19T11:26:48;101221.13;;;33.11;35.04
4705;BME280;2366;51.332;6.610;2022-08-19T11:29:16;101215.41;;;32.94;34.73
4705;BME280;2366;51.332;6.610;2022-08-19T11:31:44;101220.28;;;32.74;34.82
4705;BME280;2366;51.332;6.610;2022-08-19T11:34:14;101218.78;;;32.60;34.10
4705;BME280;2366;51.332;6.610;2022-08-19T11:36:43;101214.47;;;32.45;35.01
4705;BME280;2366;51.332;6.610;2022-08-19T11:39:11;101207.28;;;32.69;34.18
4705;BME280;2366;51.332;6.610;2022-08-19T11:41:36;101207.94;;;32.83;34.53
4705;BME280;2366;51.332;6.610;2022-08-19T11:44:02;101217.63;;;32.49;35.07
4705;BME280;2366;51.332;6.610;2022-08-19T11:46:28;101208.53;;;32.30;35.30
4705;BME280;2366;51.332;6.610;2022-08-19T11:48:56;101212.88;;;31.87;35.13
4705;BME280;2366;51.332;6.610;2022-08-19T11:51:23;101199.69;;;31.78;34.92
4705;BME280;2366;51.332;6.610;2022-08-19T11:53:50;101201.09;;;31.55;36.24
4705;BME280;2366;51.332;6.610;2022-08-19T11:56:17;101196.88;;;31.84;34.93
4705;BME280;2366;51.332;6.610;2022-08-19T11:58:44;101202.44;;;32.03;33.92
4705;BME280;2366;51.332;6.610;2022-08-19T12:01:13;101196.19;;;31.32;34.37
4705;BME280;2366;51.332;6.610;2022-08-19T12:03:41;101193.47;;;30.87;35.70
4705;BME280;2366;51.332;6.610;2022-08-19T12:06:08;101187.78;;;30.88;36.34
4705;BME280;2366;51.332;6.610;2022-08-19T12:08:36;101191.84;;;31.18;36.20
4705;BME280;2366;51.332;6.610;2022-08-19T12:11:01;101194.59;;;31.11;35.19
4705;BME280;2366;51.332;6.610;2022-08-19T12:13:28;101198.00;;;31.06;35.09
4705;BME280;2366;51.332;6.610;2022-08-19T12:15:54;101196.34;;;31.37;35.07
4705;BME280;2366;51.332;6.610;2022-08-19T12:18:19;101206.09;;;31.65;34.81
4705;BME280;2366;51.332;6.610;2022-08-19T12:20:45;101196.44;;;31.62;35.24
4705;BME280;2366;51.332;6.610;2022-08-19T12:23:11;101186.84;;;31.40;35.08
4705;BME280;2366;51.332;6.610;2022-08-19T12:25:42;101187.84;;;31.14;36.31
4705;BME280;2366;51.332;6.610;2022-08-19T12:28:10;101185.22;;;31.32;35.26
4705;BME280;2366;51.332;6.610;2022-08-19T12:30:37;101191.09;;;31.36;34.58
4705;BME280;2366;51.332;6.610;2022-08-19T12:33:03;101194.84;;;31.03;33.77
4705;BME280;2366;51.332;6.610;2022-08-19T12:35:28;101183.41;;;30.67;33.03
4705;BME280;2366;51.332;6.610;2022-08-19T12:37:55;101180.47;;;30.56;33.40
4705;BME280;2366;51.332;6.610;2022-08-19T12:40:21;101184.75;;;30.45;33.80
4705;BME280;2366;51.332;6.610;2022-08-19T12:42:46;101180.97;;;30.26;34.90
4705;BME280;2366;51.332;6.610;2022-08-19T12:45:13;101164.13;;;30.36;34.88
4705;BME280;2366;51.332;6.610;2022-08-19T12:47:39;101178.22;;;30.46;35.79
4705;BME280;2366;51.332;6.610;2022-08-19T12:50:05;101179.25;;;30.58;34.66
4705;BME280;2366;51.332;6.610;2022-08-19T12:52:36;101172.03;;;30.64;35.16
4705;BME280;2366;51.332;6.610;2022-08-19T12:55:06;101175.38;;;30.73;35.11
4705;BME280;2366;51.332;6.610;2022-08-19T12:57:32;101166.50;;;29.99;34.12
4705;BME280;2366;51.332;6.610;2022-08-19T13:00:15;101166.25;;;30.34;34.05
4705;BME280;2366;51.332;6.610;2022-08-19T13:02:43;101165.81;;;30.43;33.15
4705;BME280;2366;51.332;6.610;2022-08-19T13:05:12;101169.16;;;30.52;33.53
4705;BME280;2366;51.332;6.610;2022-08-19T13:07:39;101162.78;;;30.71;33.35
4705;BME280;2366;51.332;6.610;2022-08-19T13:10:06;101162.72;;;30.91;34.19
4705;BME280;2366;51.332;6.610;2022-08-19T13:12:32;101170.69;;;31.00;34.57
4705;BME280;2366;51.332;6.610;2022-08-19T13:14:57;101166.69;;;30.96;34.77
4705;BME280;2366;51.332;6.610;2022-08-19T13:17:23;101154.72;;;30.90;33.71
4705;BME280;2366;51.332;6.610;2022-08-19T13:19:48;101169.16;;;31.10;33.84
4705;BME280;2366;51.332;6.610;2022-08-19T13:22:14;101160.84;;;31.24;32.68
4705;BME280;2366;51.332;6.610;2022-08-19T13:24:39;101157.13;;;31.11;32.80